Time;durP1;ratioP1;P1;durP2;ratioP2;P2;SDS_P1;SDS_P2;PMS_P1;PMS_P2;Temp;Humidity;BMP_temperature;BMP_pressure;BME280_temperature;BME280_humidity;BME280_pressure;Samples;Min_cycle;Max_cycle;Signal;HPM_P1;HPM_P2
2022/06/15 00:00:33;;;;;;;3.85;3.10;;;;;;;;;;10367064;28;20249;-68
2022/06/15 00:05:39;;;;;;;5.75;3.60;;;;;;;;;;10366576;28;20039;-67
2022/06/15 00:10:44;;;;;;;4.80;3.22;;;;;;;;;;10366560;28;20309;-67
2022/06/15 00:15:48;;;;;;;4.07;3.03;;;;;;;;;;10366669;28;20061;-67
2022/06/15 00:20:50;;;;;;;9.63;3.83;;;;;;;;;;10362170;28;20038;-67
2022/06/15 00:25:55;;;;;;;8.30;3.78;;;;;;;;;;10366058;28;20257;-67
2022/06/15 00:30:57;;;;;;;5.23;3.23;;;;;;;;;;10366133;28;20057;-67
2022/06/15 00:36:02;;;;;;;4.90;3.65;;;;;;;;;;10366246;28;20116;-68
2022/06/15 00:41:06;;;;;;;;;;;;;;;;;;10366999;28;20335;-67
2022/06/15 00:46:24;;;;;;;8.38;3.75;;;;;;;;;;10351697;28;19929;-67
2022/06/15 00:51:29;;;;;;;3.75;3.45;;;;;;;;;;10365846;28;20061;-67
2022/06/15 00:56:34;;;;;;;3.75;3.28;;;;;;;;;;10352640;28;20058;-67
2022/06/15 01:01:36;;;;;;;5.32;3.53;;;;;;;;;;10365978;28;20050;-68
2022/06/15 01:06:49;;;;;;;5.03;3.97;;;;;;;;;;10359508;28;20061;-68
2022/06/15 01:12:10;;;;;;;4.70;3.40;;;;;;;;;;10373372;28;20053;-67
2022/06/15 01:17:25;;;;;;;5.90;3.60;;;;;;;;;;10360360;28;20242;-67
2022/06/15 01:22:45;;;;;;;3.83;3.20;;;;;;;;;;10363876;28;20353;-67
2022/06/15 01:28:26;;;;;;;3.00;2.72;;;;;;;;;;10373188;28;20054;-67
2022/06/15 01:33:36;;;;;;;6.05;3.50;;;;;;;;;;10359935;28;20065;-67
2022/06/15 01:38:48;;;;;;;4.10;2.97;;;;;;;;;;10372092;28;20330;-67
2022/06/15 01:43:58;;;;;;;3.42;2.60;;;;;;;;;;10359467;28;20058;-67
2022/06/15 01:49:03;;;;;;;3.40;3.08;;;;;;;;;;10323194;28;20057;-67
2022/06/15 01:54:09;;;;;;;6.15;3.20;;;;;;;;;;10366910;28;20049;-68
2022/06/15 01:59:19;;;;;;;4.30;3.28;;;;;;;;;;10371450;28;20049;-68
2022/06/15 02:04:33;;;;;;;7.57;2.97;;;;;;;;;;10371467;28;20038;-68
2022/06/15 02:09:45;;;;;;;6.80;3.20;;;;;;;;;;10370991;28;20096;-67
2022/06/15 02:14:53;;;;;;;3.45;2.50;;;;;;;;;;10369879;28;20049;-67
2022/06/15 02:20:00;;;;;;;2.95;2.75;;;;;;;;;;10369242;28;20375;-67
2022/06/15 02:25:09;;;;;;;3.55;2.80;;;;;;;;;;10358482;28;20058;-67
2022/06/15 02:30:15;;;;;;;2.53;2.33;;;;;;;;;;10318086;28;20059;-67
2022/06/15 02:35:20;;;;;;;4.85;2.97;;;;;;;;;;10338228;28;20226;-67
2022/06/15 02:40:24;;;;;;;6.78;3.28;;;;;;;;;;10342120;28;20253;-67
2022/06/15 02:45:29;;;;;;;5.90;3.28;;;;;;;;;;10370136;28;20042;-67
2022/06/15 02:50:38;;;;;;;2.85;2.58;;;;;;;;;;10357012;28;20062;-67
2022/06/15 02:55:41;;;;;;;3.22;2.78;;;;;;;;;;10369730;28;20050;-67
2022/06/15 03:00:44;;;;;;;9.00;3.50;;;;;;;;;;10369480;28;20246;-67
2022/06/15 03:05:49;;;;;;;4.93;2.90;;;;;;;;;;10355736;28;20080;-68
2022/06/15 03:10:52;;;;;;;3.80;2.78;;;;;;;;;;10355097;28;20097;-68
2022/06/15 03:15:57;;;;;;;5.88;2.97;;;;;;;;;;10369418;28;20042;-67
2022/06/15 03:21:03;;;;;;;3.80;2.50;;;;;;;;;;10364150;28;20050;-68
2022/06/15 03:26:06;;;;;;;5.35;2.53;;;;;;;;;;10368569;28;20050;-68
2022/06/15 03:31:09;;;;;;;3.42;2.42;;;;;;;;;;10350995;28;20059;-68
2022/06/15 03:36:13;;;;;;;4.95;3.40;;;;;;;;;;10367759;28;20050;-68
2022/06/15 03:41:17;;;;;;;4.40;2.55;;;;;;;;;;10366332;28;20053;-68
2022/06/15 03:46:19;;;;;;;;;;;;;;;;;;10366760;28;20054;-72
2022/06/15 03:51:23;;;;;;;4.65;2.42;;;;;;;;;;10361697;28;20232;-67
2022/06/15 03:56:40;;;;;;;;;;;;;;;;;;10338616;28;20266;-68
2022/06/15 04:01:42;;;;;;;4.15;2.60;;;;;;;;;;10366187;28;19933;-68
2022/06/15 04:06:46;;;;;;;4.30;2.35;;;;;;;;;;10353196;28;20073;-68
2022/06/15 04:12:01;;;;;;;3.13;2.17;;;;;;;;;;10366155;28;20045;-68
2022/06/15 04:17:04;;;;;;;3.33;2.55;;;;;;;;;;10366500;28;20061;-68
2022/06/15 04:22:09;;;;;;;6.47;2.88;;;;;;;;;;10352336;28;20062;-68
2022/06/15 04:27:14;;;;;;;8.13;3.92;;;;;;;;;;10366359;28;20436;-68
2022/06/15 04:32:16;;;;;;;5.20;2.70;;;;;;;;;;10352368;28;20388;-67
2022/06/15 04:37:20;;;;;;;5.68;2.38;;;;;;;;;;10365644;28;20054;-67
2022/06/15 04:42:23;;;;;;;3.58;2.30;;;;;;;;;;10352763;28;20062;-67
2022/06/15 04:47:25;;;;;;;2.92;2.17;;;;;;;;;;10352258;28;20057;-68
2022/06/15 04:52:29;;;;;;;5.87;3.57;;;;;;;;;;10365920;28;20051;-68
2022/06/15 04:57:32;;;;;;;3.13;1.90;;;;;;;;;;10365866;28;20049;-68
2022/06/15 05:02:34;;;;;;;7.30;2.67;;;;;;;;;;10332391;28;20350;-68
2022/06/15 05:07:40;;;;;;;;;;;;;;;;;;10325850;28;20047;-68
2022/06/15 05:12:44;;;;;;;5.13;2.42;;;;;;;;;;10341369;28;19930;-68
2022/06/15 05:17:48;;;;;;;4.25;2.55;;;;;;;;;;10352533;28;20269;-68
2022/06/15 05:22:53;;;;;;;4.18;2.40;;;;;;;;;;10354767;28;20066;-68
2022/06/15 05:27:57;;;;;;;9.80;3.25;;;;;;;;;;10361023;28;20065;-68
2022/06/15 05:32:59;;;;;;;3.08;1.80;;;;;;;;;;10349225;28;20054;-68
2022/06/15 05:38:03;;;;;;;3.00;1.93;;;;;;;;;;10364874;28;20050;-68
2022/06/15 05:43:06;;;;;;;5.85;2.10;;;;;;;;;;10364373;28;20364;-68
2022/06/15 05:48:09;;;;;;;2.35;1.83;;;;;;;;;;10342173;28;20403;-68
2022/06/15 05:53:13;;;;;;;6.95;2.13;;;;;;;;;;10348408;28;20049;-68
2022/06/15 05:58:15;;;;;;;4.45;1.88;;;;;;;;;;10370533;28;20050;-68
2022/06/15 06:03:18;;;;;;;6.45;1.60;;;;;;;;;;10358131;28;20050;-68
2022/06/15 06:08:22;;;;;;;2.10;0.93;;;;;;;;;;10371646;28;20046;-69
2022/06/15 06:13:25;;;;;;;0.00;0.00;;;;;;;;;;10339924;28;20239;-70
2022/06/15 06:18:27;;;;;;;0.00;0.00;;;;;;;;;;10346464;28;20357;-68
2022/06/15 06:23:31;;;;;;;0.00;0.00;;;;;;;;;;10356866;28;20066;-67
2022/06/15 06:28:38;;;;;;;0.13;0.13;;;;;;;;;;10369439;28;20053;-67
2022/06/15 06:33:41;;;;;;;0.00;0.00;;;;;;;;;;10355910;28;20049;-68
2022/06/15 06:38:46;;;;;;;0.00;0.00;;;;;;;;;;10344607;28;20352;-68
2022/06/15 06:43:48;;;;;;;0.60;0.20;;;;;;;;;;10370071;28;20045;-68
2022/06/15 06:48:51;;;;;;;3.10;1.50;;;;;;;;;;10369316;28;20053;-68
2022/06/15 06:53:55;;;;;;;2.33;1.60;;;;;;;;;;10370678;28;20050;-68
2022/06/15 06:58:57;;;;;;;1.55;1.20;;;;;;;;;;10357008;28;20364;-68
2022/06/15 07:03:59;;;;;;;4.03;1.23;;;;;;;;;;10369012;28;20050;-67
2022/06/15 07:09:04;;;;;;;1.27;0.85;;;;;;;;;;10369945;28;20053;-67
2022/06/15 07:14:06;;;;;;;0.00;0.00;;;;;;;;;;10368690;28;20199;-67
2022/06/15 07:19:09;;;;;;;0.10;0.10;;;;;;;;;;10369382;28;20047;-69
2022/06/15 07:24:13;;;;;;;;;;;;;;;;;;10355942;28;20372;-69
2022/06/15 07:29:20;;;;;;;0.40;0.40;;;;;;;;;;10355127;28;19932;-68
2022/06/15 07:34:23;;;;;;;1.10;1.10;;;;;;;;;;10368645;28;20057;-69
2022/06/15 07:39:28;;;;;;;5.75;5.55;;;;;;;;;;10369178;28;20046;-69
2022/06/15 07:44:31;;;;;;;11.43;10.93;;;;;;;;;;10354623;28;20061;-70
2022/06/15 07:54:54;;;;;;;7.10;6.90;;;;;;;;;;10349948;28;20361;-68
2022/06/15 07:59:57;;;;;;;18.88;17.98;;;;;;;;;;10343950;28;20046;-67
2022/06/15 08:04:59;;;;;;;28.15;26.65;;;;;;;;;;10367958;28;20057;-68
2022/06/15 08:10:04;;;;;;;8.93;8.63;;;;;;;;;;10367684;28;20050;-68
2022/06/15 08:15:08;;;;;;;2.50;2.50;;;;;;;;;;10352391;28;20388;-67
2022/06/15 08:20:19;;;;;;;1.30;1.30;;;;;;;;;;10353405;28;20054;-66
2022/06/15 08:25:26;;;;;;;1.20;1.20;;;;;;;;;;10353275;28;20054;-68
2022/06/15 08:30:29;;;;;;;0.30;0.30;;;;;;;;;;10351164;28;20176;-68
2022/06/15 08:35:32;;;;;;;0.00;0.00;;;;;;;;;;10366407;28;20053;-69
2022/06/15 08:40:42;;;;;;;1.00;1.00;;;;;;;;;;10353193;28;20057;-68
2022/06/15 08:45:49;;;;;;;1.10;1.10;;;;;;;;;;10365829;28;20038;-68
2022/06/15 08:51:01;;;;;;;1.20;1.20;;;;;;;;;;10366472;28;20061;-69
2022/06/15 08:56:10;;;;;;;7.00;6.80;;;;;;;;;;10345420;28;20094;-69
2022/06/15 09:01:20;;;;;;;17.23;16.42;;;;;;;;;;10332747;28;20234;-68
2022/06/15 09:06:35;;;;;;;27.25;25.85;;;;;;;;;;10366536;28;20046;-70
2022/06/15 09:11:53;;;;;;;2.22;2.22;;;;;;;;;;10351703;28;20046;-68
2022/06/15 09:17:05;;;;;;;0.20;0.20;;;;;;;;;;10365742;28;20137;-68
2022/06/15 09:22:12;;;;;;;0.00;0.00;;;;;;;;;;10344986;28;20071;-68
2022/06/15 09:27:22;;;;;;;0.00;0.00;;;;;;;;;;10355495;28;20257;-68
2022/06/15 09:32:27;;;;;;;0.00;0.00;;;;;;;;;;10372912;28;20053;-68
2022/06/15 09:37:34;;;;;;;0.00;0.00;;;;;;;;;;10373097;28;20121;-68
2022/06/15 09:42:50;;;;;;;0.00;0.00;;;;;;;;;;10358059;28;20062;-67
2022/06/15 09:48:02;;;;;;;0.00;0.00;;;;;;;;;;10358461;28;20051;-68
2022/06/15 09:53:19;;;;;;;0.20;0.10;;;;;;;;;;10356652;28;20061;-68
2022/06/15 09:58:26;;;;;;;0.08;0.08;;;;;;;;;;10358377;28;20077;-67
2022/06/15 10:03:32;;;;;;;1.85;0.32;;;;;;;;;;10371985;28;20049;-68
2022/06/15 10:08:35;;;;;;;1.58;0.73;;;;;;;;;;10371388;28;20050;-68
2022/06/15 10:13:40;;;;;;;1.20;1.00;;;;;;;;;;10371342;28;20069;-67
2022/06/15 10:18:46;;;;;;;0.80;0.80;;;;;;;;;;10354307;28;20046;-67
2022/06/15 10:23:55;;;;;;;1.13;0.90;;;;;;;;;;10342023;28;20080;-68
2022/06/15 10:29:05;;;;;;;3.38;1.17;;;;;;;;;;10358183;28;20050;-68
2022/06/15 10:34:20;;;;;;;3.45;1.20;;;;;;;;;;10358480;28;20054;-68
2022/06/15 10:39:25;;;;;;;1.60;1.08;;;;;;;;;;10357396;28;20050;-68
2022/06/15 10:44:32;;;;;;;1.73;1.48;;;;;;;;;;10357801;28;20333;-68
2022/06/15 10:49:41;;;;;;;0.98;0.80;;;;;;;;;;10346772;28;20066;-68
2022/06/15 11:05:37;;;;;;;1.42;0.90;;;;;;;;;;10370253;28;20105;-68
2022/06/15 11:10:44;;;;;;;1.25;0.73;;;;;;;;;;10336677;28;20089;-67
2022/06/15 11:21:15;;;;;;;6.55;2.72;;;;;;;;;;10324960;28;20069;-68
2022/06/15 11:31:50;;;;;;;1.17;1.07;;;;;;;;;;10355387;28;20112;-69
2022/06/15 11:36:57;;;;;;;1.33;1.00;;;;;;;;;;10316343;28;20054;-69
2022/06/15 11:42:01;;;;;;;1.50;1.15;;;;;;;;;;10357863;28;20250;-68
2022/06/15 11:47:17;;;;;;;7.60;1.92;;;;;;;;;;10328252;28;20085;-69
2022/06/15 11:52:34;;;;;;;1.80;1.10;;;;;;;;;;10349937;28;20359;-68
2022/06/15 11:57:48;;;;;;;1.45;1.20;;;;;;;;;;10367669;28;20046;-69
2022/06/15 12:03:13;;;;;;;2.00;0.95;;;;;;;;;;10363863;28;20057;-68
2022/06/15 12:08:25;;;;;;;5.72;2.40;;;;;;;;;;10343552;28;20046;-67
2022/06/15 12:13:43;;;;;;;1.67;1.10;;;;;;;;;;10353955;28;20066;-69
2022/06/15 12:18:57;;;;;;;1.15;0.90;;;;;;;;;;10354027;28;20092;-68
2022/06/15 12:24:08;;;;;;;3.45;1.00;;;;;;;;;;10345719;28;20054;-68
2022/06/15 12:29:24;;;;;;;2.17;1.00;;;;;;;;;;10353456;28;20102;-67
2022/06/15 12:34:39;;;;;;;1.45;1.10;;;;;;;;;;10365905;28;20080;-68
2022/06/15 12:39:50;;;;;;;1.98;1.00;;;;;;;;;;10365347;28;20046;-68
2022/06/15 12:44:58;;;;;;;1.20;1.03;;;;;;;;;;10365557;28;20042;-69
2022/06/15 12:50:26;;;;;;;1.67;1.10;;;;;;;;;;10366529;28;20231;-67
2022/06/15 12:55:37;;;;;;;2.60;1.45;;;;;;;;;;10366037;28;20045;-68
2022/06/15 13:00:45;;;;;;;1.77;0.90;;;;;;;;;;10352867;28;20062;-69
2022/06/15 13:05:49;;;;;;;1.77;0.85;;;;;;;;;;10366032;28;20057;-67
2022/06/15 13:11:14;;;;;;;0.80;0.70;;;;;;;;;;10349845;28;20237;-68
2022/06/15 13:16:33;;;;;;;5.63;2.05;;;;;;;;;;10341091;28;20061;-68
2022/06/15 13:21:57;;;;;;;2.67;1.25;;;;;;;;;;10346245;28;20069;-66
2022/06/15 13:27:03;;;;;;;0.70;0.70;;;;;;;;;;10365719;28;20088;-68
2022/06/15 13:32:06;;;;;;;1.30;0.90;;;;;;;;;;10366122;28;20069;-68
2022/06/15 13:37:23;;;;;;;2.85;0.93;;;;;;;;;;10364487;28;20050;-68
2022/06/15 13:42:32;;;;;;;1.08;0.98;;;;;;;;;;10352896;28;20046;-70
2022/06/15 13:47:43;;;;;;;10.60;8.68;;;;;;;;;;10365288;28;20034;-71
2022/06/15 13:52:48;;;;;;;3.07;2.53;;;;;;;;;;10364042;28;20046;-67
2022/06/15 13:58:16;;;;;;;1.88;1.00;;;;;;;;;;10333827;28;20214;-71
2022/06/15 14:03:25;;;;;;;2.90;1.45;;;;;;;;;;10365034;28;20050;-68
2022/06/15 14:08:43;;;;;;;3.03;1.00;;;;;;;;;;10364972;28;20050;-68
2022/06/15 14:13:59;;;;;;;1.60;0.80;;;;;;;;;;10368973;28;20046;-71
2022/06/15 14:19:06;;;;;;;1.00;0.90;;;;;;;;;;10371031;28;20042;-67
2022/06/15 14:24:24;;;;;;;0.63;0.63;;;;;;;;;;10355118;28;20058;-70
2022/06/15 14:29:34;;;;;;;2.90;1.25;;;;;;;;;;10370637;28;20050;-70
2022/06/15 14:34:38;;;;;;;2.15;1.00;;;;;;;;;;10336103;28;20328;-72
2022/06/15 14:39:47;;;;;;;3.38;0.93;;;;;;;;;;10361812;28;20053;-71
2022/06/15 14:44:52;;;;;;;0.80;0.70;;;;;;;;;;10383100;28;20043;-71
2022/06/15 14:49:57;;;;;;;1.92;1.08;;;;;;;;;;10374894;28;20051;-73
2022/06/15 14:55:05;;;;;;;1.63;0.82;;;;;;;;;;10369857;28;20049;-71
2022/06/15 15:00:16;;;;;;;0.77;0.77;;;;;;;;;;10368819;28;20050;-71
2022/06/15 15:05:23;;;;;;;4.25;0.98;;;;;;;;;;10364308;28;20061;-71
2022/06/15 15:10:32;;;;;;;1.08;0.77;;;;;;;;;;10369534;28;20038;-71
2022/06/15 15:15:41;;;;;;;2.17;1.00;;;;;;;;;;10356199;28;20042;-72
2022/06/15 15:20:47;;;;;;;2.60;1.10;;;;;;;;;;10383860;28;20042;-71
2022/06/15 15:25:53;;;;;;;1.90;1.08;;;;;;;;;;10356701;28;20050;-71
2022/06/15 15:41:41;;;;;;;0.98;0.88;;;;;;;;;;10346116;28;20058;-71
2022/06/15 15:46:43;;;;;;;2.33;0.88;;;;;;;;;;10366861;28;20230;-71
2022/06/15 15:51:46;;;;;;;1.85;1.05;;;;;;;;;;10353994;28;20199;-72
2022/06/15 15:56:50;;;;;;;2.57;1.20;;;;;;;;;;10363814;28;20046;-72
2022/06/15 16:01:53;;;;;;;2.03;0.90;;;;;;;;;;10338266;28;20054;-70
2022/06/15 16:06:56;;;;;;;;;;;;;;;;;;10357210;28;20038;-69
2022/06/15 16:12:01;;;;;;;2.42;1.10;;;;;;;;;;10404050;28;19932;-69
2022/06/15 16:17:04;;;;;;;1.25;1.20;;;;;;;;;;10369190;28;20038;-74
2022/06/15 16:22:07;;;;;;;1.23;1.10;;;;;;;;;;10359300;28;20077;-71
2022/06/15 16:27:11;;;;;;;3.10;1.50;;;;;;;;;;10350282;28;20046;-72
2022/06/15 16:32:14;;;;;;;1.50;1.00;;;;;;;;;;10366439;28;20050;-71
2022/06/15 16:37:16;;;;;;;1.50;1.33;;;;;;;;;;10352856;28;20047;-73
2022/06/15 16:42:20;;;;;;;0.85;0.82;;;;;;;;;;10350636;28;20100;-74
2022/06/15 16:47:23;;;;;;;;;;;;;;;;;;10365245;28;20049;-73
2022/06/15 16:52:26;;;;;;;1.92;1.23;;;;;;;;;;10365746;28;20221;-75
2022/06/15 16:57:30;;;;;;;1.03;0.80;;;;;;;;;;10366857;28;20050;-73
2022/06/15 17:02:32;;;;;;;3.65;1.25;;;;;;;;;;10381803;28;20388;-73
2022/06/15 17:07:35;;;;;;;1.48;0.90;;;;;;;;;;10366721;28;20049;-73
2022/06/15 17:12:41;;;;;;;1.80;1.23;;;;;;;;;;10366411;28;20047;-72
2022/06/15 17:17:44;;;;;;;0.90;0.90;;;;;;;;;;10357133;28;20058;-72
2022/06/15 17:22:47;;;;;;;1.75;1.30;;;;;;;;;;10355597;28;20058;-71
2022/06/15 17:27:51;;;;;;;2.13;1.45;;;;;;;;;;10367803;28;20408;-72
2022/06/15 17:32:54;;;;;;;1.40;1.30;;;;;;;;;;10367648;28;20054;-72
2022/06/15 17:37:56;;;;;;;2.63;1.40;;;;;;;;;;10352084;28;20360;-71
2022/06/15 17:43:00;;;;;;;5.00;1.80;;;;;;;;;;10366404;28;20050;-71
2022/06/15 17:48:02;;;;;;;;;;;;;;;;;;10372102;28;20353;-72
2022/06/15 17:53:05;;;;;;;1.75;1.33;;;;;;;;;;10377667;28;20201;-72
2022/06/15 17:58:10;;;;;;;6.22;1.83;;;;;;;;;;10371414;28;20053;-73
2022/06/15 18:03:13;;;;;;;2.42;1.77;;;;;;;;;;10371785;28;20046;-73
2022/06/15 18:08:15;;;;;;;2.90;1.87;;;;;;;;;;10373547;28;20045;-73
2022/06/15 18:13:36;;;;;;;8.18;2.33;;;;;;;;;;10359073;28;20353;-72
2022/06/15 18:18:41;;;;;;;1.83;1.70;;;;;;;;;;10371398;28;20038;-71
2022/06/15 18:23:44;;;;;;;5.63;1.98;;;;;;;;;;10361133;28;20062;-71
2022/06/15 18:28:48;;;;;;;2.53;1.80;;;;;;;;;;10407335;28;20042;-69
2022/06/15 18:33:50;;;;;;;2.38;2.03;;;;;;;;;;10370480;28;20046;-68
2022/06/15 18:38:53;;;;;;;4.20;2.40;;;;;;;;;;10369830;28;20035;-69
2022/06/15 18:49:17;;;;;;;3.85;2.88;;;;;;;;;;10368742;28;20042;-69
2022/06/15 18:54:20;;;;;;;9.43;2.95;;;;;;;;;;10367826;28;20344;-70
2022/06/15 18:59:24;;;;;;;3.83;3.25;;;;;;;;;;10368524;28;20038;-68
2022/06/15 19:04:26;;;;;;;4.32;2.45;;;;;;;;;;10356120;28;20041;-69
2022/06/15 19:09:30;;;;;;;3.47;2.72;;;;;;;;;;10368314;28;20058;-69
2022/06/15 19:14:34;;;;;;;6.03;3.43;;;;;;;;;;10368394;28;20046;-69
2022/06/15 19:19:36;;;;;;;3.88;2.63;;;;;;;;;;10367764;28;20234;-68
2022/06/15 19:24:45;;;;;;;3.97;3.13;;;;;;;;;;10356648;28;20058;-70
2022/06/15 19:29:52;;;;;;;6.75;3.50;;;;;;;;;;10368127;28;20081;-69
2022/06/15 19:34:57;;;;;;;7.78;4.10;;;;;;;;;;10354463;28;20096;-70
2022/06/15 19:40:00;;;;;;;6.70;4.13;;;;;;;;;;10366164;28;20097;-71
2022/06/15 19:45:05;;;;;;;6.55;3.83;;;;;;;;;;10351788;28;20070;-69
2022/06/15 19:50:10;;;;;;;9.15;4.10;;;;;;;;;;10366517;28;20050;-69
2022/06/15 19:55:13;;;;;;;10.10;4.15;;;;;;;;;;10362985;28;20050;-69
2022/06/15 20:00:20;;;;;;;5.70;3.35;;;;;;;;;;10358681;28;20060;-71
2022/06/15 20:05:22;;;;;;;7.80;4.25;;;;;;;;;;10366325;28;20329;-69
2022/06/15 20:10:26;;;;;;;14.43;5.05;;;;;;;;;;10364206;28;20334;-70
2022/06/15 20:15:34;;;;;;;7.20;4.63;;;;;;;;;;10366144;28;20049;-70
2022/06/15 20:20:39;;;;;;;19.35;7.78;;;;;;;;;;10360521;28;20047;-69
2022/06/15 20:25:44;;;;;;;12.30;6.18;;;;;;;;;;10354643;28;20070;-69
2022/06/15 20:30:48;;;;;;;9.68;3.63;;;;;;;;;;10351350;28;20050;-69
2022/06/15 20:35:51;;;;;;;6.07;3.20;;;;;;;;;;10367513;28;20257;-69
2022/06/15 20:40:54;;;;;;;6.57;3.42;;;;;;;;;;10366895;28;20050;-70
2022/06/15 20:45:59;;;;;;;4.85;3.65;;;;;;;;;;10360136;28;20049;-70
2022/06/15 20:51:02;;;;;;;4.97;3.60;;;;;;;;;;10333668;28;20057;-69
2022/06/15 21:01:27;;;;;;;3.83;3.40;;;;;;;;;;10361110;28;20086;-69
2022/06/15 21:06:31;;;;;;;6.40;3.97;;;;;;;;;;10365078;28;20038;-69
2022/06/15 21:22:18;;;;;;;3.70;3.10;;;;;;;;;;10272814;28;20074;-69
2022/06/15 21:27:21;;;;;;;4.72;3.08;;;;;;;;;;10275519;29;20270;-69
2022/06/15 21:32:25;;;;;;;5.40;3.28;;;;;;;;;;10282143;28;20365;-69
2022/06/15 21:37:28;;;;;;;4.63;3.50;;;;;;;;;;10284673;28;20054;-69
2022/06/15 21:42:31;;;;;;;6.28;3.35;;;;;;;;;;10288954;28;20043;-69
2022/06/15 21:47:40;;;;;;;4.90;2.83;;;;;;;;;;10271836;28;20047;-68
2022/06/15 21:52:46;;;;;;;5.88;3.42;;;;;;;;;;10253556;29;20340;-68
2022/06/15 21:57:49;;;;;;;6.65;3.75;;;;;;;;;;10322964;28;20050;-68
2022/06/15 22:02:52;;;;;;;4.50;3.00;;;;;;;;;;10372793;28;20054;-68
2022/06/15 22:07:55;;;;;;;5.22;3.30;;;;;;;;;;10372818;28;20049;-69
2022/06/15 22:12:58;;;;;;;5.55;3.53;;;;;;;;;;10373383;28;20050;-70
2022/06/15 22:18:02;;;;;;;5.13;3.80;;;;;;;;;;10372499;28;20054;-69
2022/06/15 22:23:05;;;;;;;5.27;3.50;;;;;;;;;;10361919;28;20077;-68
2022/06/15 22:28:08;;;;;;;3.95;3.25;;;;;;;;;;10371934;28;20057;-69
2022/06/15 22:33:11;;;;;;;3.25;2.80;;;;;;;;;;10370631;28;20330;-69
2022/06/15 22:38:14;;;;;;;3.67;3.37;;;;;;;;;;10371144;28;20043;-69
2022/06/15 22:43:17;;;;;;;6.20;3.22;;;;;;;;;;10371113;28;20049;-70
2022/06/15 22:53:41;;;;;;;4.00;3.47;;;;;;;;;;10351664;28;20101;-69
2022/06/15 22:58:43;;;;;;;5.53;3.40;;;;;;;;;;10370430;28;20050;-69
2022/06/15 23:03:47;;;;;;;4.55;3.33;;;;;;;;;;10370266;28;20164;-69
2022/06/15 23:08:52;;;;;;;5.25;2.97;;;;;;;;;;10369862;28;20349;-69
2022/06/15 23:13:54;;;;;;;3.25;2.90;;;;;;;;;;10356257;28;20274;-69
2022/06/15 23:18:59;;;;;;;3.72;2.97;;;;;;;;;;10349933;28;20081;-69
2022/06/15 23:24:04;;;;;;;4.90;3.13;;;;;;;;;;10315917;28;20070;-69
2022/06/15 23:29:07;;;;;;;4.05;2.72;;;;;;;;;;10366540;28;20042;-69
2022/06/15 23:34:11;;;;;;;5.18;3.03;;;;;;;;;;10368571;28;20246;-68
2022/06/15 23:39:13;;;;;;;4.73;3.47;;;;;;;;;;10368235;28;20038;-68
2022/06/15 23:44:16;;;;;;;3.47;2.83;;;;;;;;;;10368634;28;20057;-68
2022/06/15 23:49:20;;;;;;;5.03;3.55;;;;;;;;;;10367846;28;20046;-69
2022/06/15 23:54:23;;;;;;;3.93;3.03;;;;;;;;;;10368629;28;20054;-68
2022/06/15 23:59:25;;;;;;;3.63;2.80;;;;;;;;;;10367440;28;20297;-68
